METAR Data
IDs: Format: Raw Decoded Include TAF

Data at: 2106 UTC 23 Oct 2021

LYPG 232100Z 32005KT 300V360 9999 FEW020 SCT033 BKN090 15/14 Q1023 NOSIG